Time;durP1;ratioP1;P1;durP2;ratioP2;P2;SDS_P1;SDS_P2;PMS_P1;PMS_P2;Temp;Humidity;BMP_temperature;BMP_pressure;BME280_temperature;BME280_humidity;BME280_pressure;Samples;Min_cycle;Max_cycle;Signal;HPM_P1;HPM_P2
2021/08/01 00:01:28;;;;;;;3.17;1.40;;;22.20;57.90;;;;;;20993733;28;20033;-19
2021/08/01 00:11:29;;;;;;;19.00;3.97;;;22.20;57.90;;;;;;20985483;28;20044;-19
2021/08/01 00:21:31;;;;;;;9.63;3.42;;;22.20;58.00;;;;;;20989650;28;20033;-19
2021/08/01 00:31:32;;;;;;;6.97;1.83;;;22.20;57.90;;;;;;21013499;28;20033;-19
2021/08/01 00:41:33;;;;;;;4.93;2.30;;;22.10;58.00;;;;;;21010037;28;20037;-19
2021/08/01 00:51:34;;;;;;;5.45;2.10;;;22.10;58.00;;;;;;21002250;28;20219;-20
2021/08/01 01:02:03;;;;;;;4.97;2.03;;;22.10;57.90;;;;;;21001296;28;20041;-19
2021/08/01 01:12:09;;;;;;;2.92;1.60;;;22.10;57.90;;;;;;20999877;28;20032;-19
2021/08/01 01:22:29;;;;;;;4.03;1.55;;;22.00;57.90;;;;;;20999351;28;20049;-20
2021/08/01 01:32:42;;;;;;;2.58;1.60;;;22.00;57.70;;;;;;20998986;28;20559;-19
2021/08/01 01:42:43;;;;;;;4.05;1.70;;;22.00;57.70;;;;;;21001841;28;20062;-20
2021/08/01 01:52:48;;;;;;;2.15;1.33;;;22.00;57.60;;;;;;20997309;28;20045;-20
2021/08/01 02:02:49;;;;;;;6.63;1.40;;;22.00;57.60;;;;;;20996544;28;20037;-19
2021/08/01 02:12:52;;;;;;;2.28;1.77;;;21.90;57.50;;;;;;20995247;28;20034;-19
2021/08/01 02:22:53;;;;;;;2.28;1.55;;;22.00;57.50;;;;;;20994677;28;20056;-19
2021/08/01 02:32:55;;;;;;;2.15;1.13;;;21.90;57.40;;;;;;20993019;28;20044;-19
2021/08/01 02:42:57;;;;;;;3.05;1.45;;;21.90;57.40;;;;;;20993546;28;20404;-20
2021/08/01 02:53:01;;;;;;;7.63;1.80;;;21.90;57.50;;;;;;20988929;28;20040;-19
2021/08/01 03:03:05;;;;;;;5.03;1.88;;;21.80;57.40;;;;;;20854861;23;1140840;-19
2021/08/01 03:13:05;;;;;;;4.18;1.75;;;21.90;57.40;;;;;;20824553;28;20064;-19
2021/08/01 03:23:06;;;;;;;2.55;1.45;;;21.80;57.30;;;;;;20823181;28;20049;-19
2021/08/01 03:33:06;;;;;;;3.63;2.00;;;21.80;57.40;;;;;;20822433;28;20037;-20
2021/08/01 03:43:07;;;;;;;2.08;1.30;;;21.90;57.50;;;;;;20822146;28;20116;-19
2021/08/01 03:53:07;;;;;;;3.22;1.73;;;21.80;57.40;;;;;;20821435;28;20103;-19
2021/08/01 04:03:08;;;;;;;3.40;1.75;;;21.80;57.50;;;;;;20821491;28;20576;-19
2021/08/01 04:13:08;;;;;;;8.90;2.03;;;21.80;57.50;;;;;;20820062;28;20025;-20
2021/08/01 04:23:09;;;;;;;3.35;1.77;;;21.80;57.50;;;;;;20819825;28;20030;-20
2021/08/01 04:33:10;;;;;;;5.65;1.67;;;21.80;57.80;;;;;;20819735;28;20030;-21
2021/08/01 04:43:10;;;;;;;3.47;2.00;;;21.80;57.60;;;;;;20818820;28;20083;-20
2021/08/01 04:53:11;;;;;;;2.97;2.40;;;21.80;57.60;;;;;;20820092;28;20026;-20
2021/08/01 05:03:11;;;;;;;3.25;2.03;;;21.80;57.60;;;;;;20818579;28;20107;-20
2021/08/01 05:13:12;;;;;;;4.25;2.13;;;21.80;57.60;;;;;;20818539;28;20037;-20
2021/08/01 05:23:13;;;;;;;2.60;2.00;;;21.80;57.60;;;;;;20820543;28;20037;-20
2021/08/01 05:33:13;;;;;;;3.03;2.10;;;21.80;57.70;;;;;;20832868;28;20095;-20
2021/08/01 05:43:14;;;;;;;2.72;1.92;;;21.80;57.70;;;;;;20832263;28;20375;-20
2021/08/01 05:53:17;;;;;;;3.75;2.38;;;21.80;57.70;;;;;;20831567;28;20029;-21
2021/08/01 06:03:18;;;;;;;3.05;2.72;;;21.80;57.80;;;;;;20831544;28;20055;-20
2021/08/01 06:13:18;;;;;;;5.60;3.10;;;21.80;57.80;;;;;;20831581;28;20054;-20
2021/08/01 06:23:19;;;;;;;3.92;2.60;;;21.80;57.90;;;;;;20851440;28;20033;-20
2021/08/01 06:33:19;;;;;;;5.80;2.95;;;21.80;58.00;;;;;;20836447;28;20044;-19
2021/08/01 06:43:20;;;;;;;3.20;2.28;;;21.80;58.10;;;;;;20827652;28;20183;-19
2021/08/01 06:53:20;;;;;;;3.58;2.95;;;21.80;58.10;;;;;;20826891;28;20087;-20
2021/08/01 07:03:24;;;;;;;3.58;2.63;;;21.80;58.20;;;;;;20822885;28;20063;-20
2021/08/01 07:13:25;;;;;;;4.10;2.45;;;21.80;58.30;;;;;;20822628;28;20048;-19
2021/08/01 07:23:27;;;;;;;2.78;2.47;;;21.80;58.30;;;;;;20824061;28;20029;-19
2021/08/01 07:33:27;;;;;;;17.38;3.40;;;21.80;58.30;;;;;;20824469;28;20037;-20
2021/08/01 07:43:28;;;;;;;23.92;5.00;;;21.90;58.20;;;;;;20831156;28;20450;-19
2021/08/01 07:53:28;;;;;;;59.33;11.07;;;22.00;58.50;;;;;;20823696;28;20038;-20
2021/08/01 08:03:29;;;;;;;18.70;5.57;;;22.00;58.50;;;;;;20821391;28;20513;-20
2021/08/01 08:13:29;;;;;;;29.67;6.23;;;22.00;58.60;;;;;;20819542;28;20025;-20
2021/08/01 08:23:30;;;;;;;24.23;4.47;;;22.10;58.30;;;;;;20818909;28;20565;-19
2021/08/01 08:33:30;;;;;;;11.98;3.40;;;22.00;58.40;;;;;;20818906;28;20041;-20
2021/08/01 08:43:32;;;;;;;12.23;2.97;;;22.10;58.30;;;;;;20818524;28;20041;-20
2021/08/01 08:53:35;;;;;;;11.65;3.20;;;22.10;58.20;;;;;;20817090;28;20033;-20
2021/08/01 09:03:35;;;;;;;12.15;2.97;;;22.10;58.10;;;;;;20828525;28;20033;-20
2021/08/01 09:13:47;;;;;;;12.07;2.77;;;22.10;58.20;;;;;;20834065;28;20068;-20
2021/08/01 09:23:50;;;;;;;24.27;3.03;;;22.10;58.10;;;;;;20833511;28;21032;-20
2021/08/01 09:33:53;;;;;;;12.23;3.08;;;22.10;58.10;;;;;;20832840;28;20124;-20
2021/08/01 09:43:57;;;;;;;11.90;3.22;;;22.10;58.10;;;;;;20831304;28;20033;-21
2021/08/01 09:53:58;;;;;;;8.77;3.60;;;22.10;58.20;;;;;;20830511;28;20040;-21
2021/08/01 10:03:59;;;;;;;12.00;3.30;;;22.10;58.10;;;;;;20830435;28;20470;-20
2021/08/01 10:14:01;;;;;;;9.65;3.65;;;22.20;58.10;;;;;;20828979;28;20038;-21
2021/08/01 10:24:05;;;;;;;7.05;2.72;;;22.10;58.10;;;;;;20829146;28;20575;-19
2021/08/01 10:34:19;;;;;;;7.45;3.05;;;22.10;58.10;;;;;;20828600;28;20066;-20
2021/08/01 10:44:20;;;;;;;6.03;2.60;;;22.10;58.00;;;;;;20827362;28;20037;-21
2021/08/01 10:54:21;;;;;;;7.97;3.17;;;22.10;58.10;;;;;;20826347;28;20049;-21
2021/08/01 11:04:29;;;;;;;11.45;3.03;;;22.20;57.90;;;;;;20825241;28;20379;-19
2021/08/01 11:14:53;;;;;;;29.03;5.27;;;22.20;58.00;;;;;;20822234;28;20033;-21
2021/08/01 11:25:31;;;;;;;16.73;3.30;;;22.20;57.80;;;;;;20821873;28;20509;-21
2021/08/01 11:35:32;;;;;;;18.05;3.58;;;22.30;57.50;;;;;;20822549;28;20034;-20
2021/08/01 11:45:58;;;;;;;20.47;3.97;;;22.30;57.30;;;;;;20803638;28;20038;-20
2021/08/01 11:56:00;;;;;;;22.65;4.45;;;22.30;57.00;;;;;;20740602;28;20061;-20
2021/08/01 12:06:00;;;;;;;29.63;4.47;;;22.30;57.70;;;;;;20769003;28;20075;-20
2021/08/01 12:16:01;;;;;;;15.38;3.75;;;22.30;58.20;;;;;;20818734;28;20041;-19
2021/08/01 12:26:02;;;;;;;23.20;4.45;;;22.30;58.50;;;;;;20819039;28;20048;-19
2021/08/01 12:36:02;;;;;;;16.75;4.25;;;22.40;58.20;;;;;;20816070;28;20128;-20
2021/08/01 12:46:16;;;;;;;8.70;3.50;;;22.40;57.70;;;;;;20819118;28;20041;-21
2021/08/01 12:56:16;;;;;;;8.23;2.30;;;22.40;57.40;;;;;;20818678;28;20824;-21
2021/08/01 13:06:26;;;;;;;8.48;3.55;;;22.40;56.90;;;;;;20817024;28;20080;-21
2021/08/01 13:16:49;;;;;;;7.78;3.15;;;22.40;56.70;;;;;;20815129;28;20112;-20
2021/08/01 13:27:00;;;;;;;17.52;4.43;;;22.50;56.40;;;;;;20815971;28;20045;-21
2021/08/01 13:37:01;;;;;;;9.18;3.42;;;22.50;56.80;;;;;;20814518;28;20124;-21
2021/08/01 13:47:10;;;;;;;10.38;3.85;;;22.30;56.90;;;;;;20818397;28;20057;-20
2021/08/01 13:57:13;;;;;;;14.75;3.88;;;22.40;57.00;;;;;;20828973;28;20046;-19
2021/08/01 14:07:14;;;;;;;11.38;3.85;;;22.50;57.10;;;;;;20830026;28;20037;-21
2021/08/01 14:17:14;;;;;;;11.85;2.80;;;22.40;57.20;;;;;;20829218;28;20041;-19
2021/08/01 14:27:15;;;;;;;5.30;2.63;;;22.40;57.30;;;;;;20828879;28;20393;-21
2021/08/01 14:37:16;;;;;;;5.18;2.58;;;22.40;57.40;;;;;;20833341;28;20096;-22
2021/08/01 14:47:31;;;;;;;5.45;2.83;;;22.40;57.50;;;;;;20844114;28;20041;-20
2021/08/01 14:57:46;;;;;;;7.53;2.97;;;22.40;57.50;;;;;;20825017;28;20049;-20
2021/08/01 15:07:58;;;;;;;3.95;2.70;;;22.40;57.60;;;;;;20826769;28;20049;-19
2021/08/01 15:18:09;;;;;;;3.75;2.28;;;22.30;57.60;;;;;;20825632;28;20065;-19
2021/08/01 15:28:12;;;;;;;5.78;2.20;;;22.30;57.70;;;;;;20824290;28;20041;-21
2021/08/01 15:38:13;;;;;;;5.20;2.65;;;22.30;57.80;;;;;;20823589;28;20038;-20
2021/08/01 15:48:14;;;;;;;4.88;2.40;;;22.30;57.80;;;;;;20827098;28;20034;-21
2021/08/01 15:58:20;;;;;;;4.80;2.78;;;22.40;57.90;;;;;;20820623;28;20113;-21
2021/08/01 16:08:24;;;;;;;5.57;2.53;;;22.40;57.90;;;;;;20821585;28;20037;-20
2021/08/01 16:18:26;;;;;;;6.35;2.30;;;22.40;57.90;;;;;;20820949;28;20021;-20
2021/08/01 16:28:26;;;;;;;5.00;2.92;;;22.50;57.90;;;;;;20820898;28;20034;-20
2021/08/01 16:38:27;;;;;;;3.38;2.50;;;22.60;57.70;;;;;;20820239;28;20091;-21
2021/08/01 16:48:30;;;;;;;5.95;2.45;;;22.70;57.60;;;;;;20823770;28;20034;-20
2021/08/01 16:58:37;;;;;;;3.80;2.45;;;22.70;57.50;;;;;;20824946;28;20052;-20
2021/08/01 17:08:55;;;;;;;2.80;1.98;;;22.70;57.50;;;;;;20834342;28;20112;-21
2021/08/01 17:18:58;;;;;;;6.37;2.43;;;22.70;57.60;;;;;;20839866;28;20111;-21
2021/08/01 17:29:02;;;;;;;2.53;2.00;;;22.70;57.70;;;;;;20849835;28;20431;-21
2021/08/01 17:39:05;;;;;;;3.00;2.40;;;22.70;57.80;;;;;;20845838;28;20109;-19
2021/08/01 17:49:07;;;;;;;8.07;2.03;;;22.70;57.70;;;;;;20833544;28;20056;-20
2021/08/01 17:59:09;;;;;;;2.67;1.70;;;22.60;57.50;;;;;;20832415;28;20120;-23
2021/08/01 18:09:14;;;;;;;11.95;2.47;;;22.50;56.70;;;;;;20830761;28;20048;-22
2021/08/01 18:19:17;;;;;;;21.00;5.47;;;22.40;57.30;;;;;;20839192;28;20042;-21
2021/08/01 18:29:17;;;;;;;10.18;2.35;;;22.50;58.20;;;;;;20838750;28;20065;-20
2021/08/01 18:39:18;;;;;;;16.63;3.05;;;22.40;57.50;;;;;;20826650;28;20034;-21
2021/08/01 18:49:19;;;;;;;17.05;2.80;;;22.40;57.10;;;;;;20826808;28;20038;-20
2021/08/01 18:59:20;;;;;;;7.75;1.50;;;22.30;57.40;;;;;;20834750;28;20036;-21
2021/08/01 19:09:25;;;;;;;11.07;1.70;;;22.20;56.80;;;;;;20835097;28;20041;-20
2021/08/01 19:19:30;;;;;;;29.70;2.95;;;22.20;56.80;;;;;;20824956;28;20120;-21
2021/08/01 19:29:33;;;;;;;17.85;3.10;;;22.20;57.30;;;;;;20825542;28;20040;-21
2021/08/01 19:39:36;;;;;;;24.13;5.55;;;22.30;57.40;;;;;;20826536;28;20095;-21
2021/08/01 19:49:37;;;;;;;30.40;5.45;;;22.30;57.70;;;;;;20826863;28;20052;-21
2021/08/01 19:59:37;;;;;;;30.30;4.40;;;22.30;57.90;;;;;;20827247;28;20029;-20
2021/08/01 20:09:38;;;;;;;51.92;7.05;;;22.30;57.90;;;;;;20822950;28;20072;-21
2021/08/01 20:19:40;;;;;;;34.22;3.67;;;22.30;58.40;;;;;;20820198;28;20056;-19
2021/08/01 20:29:40;;;;;;;36.00;4.18;;;22.30;58.20;;;;;;20818917;28;20033;-22
2021/08/01 20:39:41;;;;;;;20.00;3.30;;;22.30;58.10;;;;;;20819418;28;20048;-20
2021/08/01 20:49:42;;;;;;;25.00;3.78;;;22.30;58.30;;;;;;20818764;28;20044;-20
2021/08/01 20:59:42;;;;;;;21.08;3.20;;;22.30;58.20;;;;;;20832759;28;20049;-20
2021/08/01 21:09:43;;;;;;;15.25;2.58;;;22.40;58.30;;;;;;20869987;23;20059;-19
2021/08/01 21:19:43;;;;;;;9.43;2.30;;;22.40;58.70;;;;;;20760598;28;20401;-20
2021/08/01 21:29:44;;;;;;;12.85;2.55;;;22.30;58.70;;;;;;20764995;28;20488;-20
2021/08/01 21:39:45;;;;;;;12.88;3.05;;;22.40;59.00;;;;;;20751288;28;20088;-20
2021/08/01 21:49:45;;;;;;;11.60;2.47;;;22.40;59.30;;;;;;20751003;28;20133;-20
2021/08/01 21:59:46;;;;;;;18.93;2.87;;;22.40;59.30;;;;;;20753656;28;20088;-20
2021/08/01 22:09:48;;;;;;;8.30;2.60;;;22.30;59.30;;;;;;20747542;28;20034;-18
2021/08/01 22:19:49;;;;;;;10.35;2.75;;;22.30;59.30;;;;;;20748782;28;20038;-19
2021/08/01 22:29:52;;;;;;;8.82;2.25;;;22.40;59.50;;;;;;20748309;28;20520;-19
2021/08/01 22:39:54;;;;;;;9.32;2.20;;;22.30;59.40;;;;;;20747722;28;20034;-19
2021/08/01 22:49:55;;;;;;;14.63;2.45;;;22.30;59.40;;;;;;20747170;28;20033;-20
2021/08/01 22:59:56;;;;;;;7.68;2.65;;;22.30;59.40;;;;;;20744500;28;20033;-20
2021/08/01 23:09:59;;;;;;;6.45;2.22;;;22.30;59.40;;;;;;20744240;28;20100;-20
2021/08/01 23:20:09;;;;;;;5.30;1.55;;;22.30;59.00;;;;;;20745046;28;20037;-20
2021/08/01 23:30:10;;;;;;;4.93;1.70;;;22.30;59.00;;;;;;20750646;28;20045;-19
2021/08/01 23:40:13;;;;;;;3.40;1.90;;;22.30;58.90;;;;;;20743601;28;20034;-19
2021/08/01 23:50:15;;;;;;;4.30;1.85;;;22.30;59.00;;;;;;20744801;28;20061;-20
